createdAt,value
2022-12-24T00:00:58.082Z,3.18
2022-12-24T00:05:15.079Z,3.20
2022-12-24T00:09:32.255Z,3.13
2022-12-24T00:13:49.687Z,3.18
2022-12-24T00:18:06.887Z,3.16
2022-12-24T00:22:24.096Z,3.20
2022-12-24T00:26:41.162Z,3.27
2022-12-24T00:30:58.297Z,3.23
2022-12-24T00:35:15.510Z,3.35
2022-12-24T00:39:33.526Z,3.29
2022-12-24T00:43:56.552Z,3.33
2022-12-24T00:48:13.436Z,3.29
2022-12-24T00:52:30.501Z,3.26
2022-12-24T00:56:47.376Z,3.26
2022-12-24T01:01:05.666Z,3.30
2022-12-24T01:05:23.507Z,3.35
2022-12-24T01:09:40.443Z,3.35
2022-12-24T01:13:57.509Z,3.47
2022-12-24T01:18:14.509Z,3.53
2022-12-24T01:22:31.656Z,3.51
2022-12-24T01:26:48.532Z,3.50
2022-12-24T01:31:19.351Z,3.53
2022-12-24T01:35:43.459Z,3.54
2022-12-24T01:40:20.384Z,3.63
2022-12-24T01:44:48.067Z,3.64
2022-12-24T01:49:07.041Z,3.64
2022-12-24T01:53:24.458Z,3.70
2022-12-24T01:57:55.805Z,3.70
2022-12-24T02:02:13.645Z,3.60
2022-12-24T02:06:30.829Z,3.60
2022-12-24T02:10:48.745Z,3.63
2022-12-24T02:15:09.458Z,3.73
2022-12-24T02:19:29.343Z,3.61
2022-12-24T02:24:42.036Z,3.60
2022-12-24T02:29:21.478Z,3.53
2022-12-24T02:34:01.750Z,3.71
2022-12-24T02:38:50.021Z,3.67
2022-12-24T02:43:15.629Z,3.59
2022-12-24T02:47:34.420Z,3.61
2022-12-24T02:51:51.565Z,3.71
2022-12-24T02:56:26.586Z,3.77
2022-12-24T03:01:19.344Z,3.77
2022-12-24T03:05:56.443Z,3.67
2022-12-24T03:11:05.967Z,3.69
2022-12-24T03:15:26.411Z,3.78
2022-12-24T03:19:44.274Z,3.80
2022-12-24T03:24:02.207Z,3.80
2022-12-24T03:28:25.101Z,3.73
2022-12-24T03:32:41.999Z,3.67
2022-12-24T03:36:59.100Z,3.66
2022-12-24T03:41:16.418Z,3.94
2022-12-24T03:45:34.775Z,4.08
2022-12-24T03:49:52.442Z,4.03
2022-12-24T04:28:26.472Z,4.95
2022-12-24T04:45:42.000Z,5.02
2022-12-24T04:58:34.696Z,5.05
2022-12-24T05:02:52.000Z,5.01
2022-12-24T05:07:09.059Z,4.95
2022-12-24T05:11:26.954Z,4.95
2022-12-24T05:15:44.939Z,4.92
2022-12-24T05:20:02.029Z,4.92
2022-12-24T05:24:37.818Z,4.91
2022-12-24T05:28:57.756Z,4.81
2022-12-24T05:33:14.631Z,4.87
2022-12-24T05:37:31.715Z,4.96
2022-12-24T05:42:00.347Z,4.84
2022-12-24T05:46:21.527Z,4.84
2022-12-24T05:50:40.547Z,4.81
2022-12-24T05:54:57.635Z,4.83
2022-12-24T05:59:14.501Z,4.85
2022-12-24T06:03:32.909Z,4.83
2022-12-24T06:07:49.797Z,4.85
2022-12-24T06:12:07.378Z,4.87
2022-12-24T06:16:25.806Z,4.92
2022-12-24T06:20:43.033Z,4.89
2022-12-24T06:24:59.923Z,4.87
2022-12-24T06:29:16.980Z,4.88
2022-12-24T06:33:34.734Z,4.75
2022-12-24T06:37:51.874Z,4.89
2022-12-24T06:42:08.721Z,4.83
2022-12-24T06:46:25.988Z,4.88
2022-12-24T06:50:43.305Z,4.83
2022-12-24T06:55:00.459Z,4.95
2022-12-24T06:59:17.291Z,4.89
2022-12-24T07:03:35.436Z,4.94
2022-12-24T07:07:52.260Z,4.94
2022-12-24T07:12:09.670Z,4.95
2022-12-24T07:16:26.658Z,4.91
2022-12-24T07:20:43.958Z,4.91
2022-12-24T07:25:00.940Z,4.99
2022-12-24T07:29:18.051Z,4.91
2022-12-24T07:33:34.931Z,5.05
2022-12-24T07:37:52.056Z,5.06
2022-12-24T07:42:08.959Z,5.12
2022-12-24T07:46:27.357Z,5.18
2022-12-24T07:50:44.304Z,5.15
2022-12-24T07:55:01.432Z,5.12
2022-12-24T07:59:18.273Z,5.13
2022-12-24T08:03:35.692Z,5.22
2022-12-24T08:07:52.592Z,5.18
2022-12-24T08:12:09.727Z,5.18
2022-12-24T08:16:26.790Z,5.24
2022-12-24T08:20:44.409Z,5.43
2022-12-24T08:25:01.344Z,5.53
2022-12-24T08:29:18.399Z,5.57
2022-12-24T08:33:35.454Z,5.60
2022-12-24T08:37:52.617Z,5.70
2022-12-24T08:42:09.479Z,5.85
2022-12-24T08:46:27.172Z,5.82
2022-12-24T08:50:44.622Z,5.75
2022-12-24T08:55:01.833Z,5.71
2022-12-24T08:59:18.774Z,5.77
2022-12-24T09:03:36.035Z,5.82
2022-12-24T09:07:53.347Z,5.91
2022-12-24T09:12:10.559Z,6.06
2022-12-24T09:16:28.099Z,6.10
2022-12-24T09:20:46.992Z,6.15
2022-12-24T09:25:06.410Z,6.02
2022-12-24T09:29:23.496Z,5.97
2022-12-24T09:33:42.214Z,5.92
2022-12-24T09:38:05.147Z,5.98
2022-12-24T09:42:49.108Z,6.03
2022-12-24T09:47:28.625Z,6.02
2022-12-24T09:52:03.626Z,5.95
2022-12-24T09:56:31.740Z,6.01
2022-12-24T10:00:50.408Z,6.08
2022-12-24T10:05:15.855Z,6.03
2022-12-24T10:10:29.715Z,6.02
2022-12-24T10:14:58.351Z,6.01
2022-12-24T10:19:37.501Z,5.99
2022-12-24T10:24:02.205Z,5.99
2022-12-24T10:28:30.230Z,6.08
2022-12-24T10:32:52.822Z,6.13
2022-12-24T10:37:22.925Z,6.26
2022-12-24T10:41:40.249Z,6.39
2022-12-24T10:46:02.319Z,6.39
2022-12-24T10:50:43.106Z,6.41
2022-12-24T10:55:24.540Z,6.51
2022-12-24T10:59:55.092Z,6.63
2022-12-24T11:04:23.278Z,6.65
2022-12-24T11:08:45.410Z,6.74
2022-12-24T11:13:35.799Z,6.63
2022-12-24T11:17:40.343Z,6.71
2022-12-24T11:22:05.642Z,6.80
2022-12-24T11:26:30.491Z,6.87
2022-12-24T11:31:21.243Z,6.94
2022-12-24T11:35:47.891Z,6.94
2022-12-24T11:40:05.722Z,7.08
2022-12-24T11:44:27.898Z,7.34
2022-12-24T11:48:45.388Z,7.19
2022-12-24T11:53:17.856Z,7.12
2022-12-24T11:58:02.653Z,7.16
2022-12-24T12:02:29.763Z,7.08
2022-12-24T12:07:00.665Z,7.20
2022-12-24T12:11:18.435Z,7.08
2022-12-24T12:15:45.867Z,7.01
2022-12-24T12:20:15.162Z,6.99
2022-12-24T12:24:43.941Z,6.99
2022-12-24T12:29:10.593Z,6.85
2022-12-24T12:34:00.634Z,6.81
2022-12-24T12:38:27.445Z,6.78
2022-12-24T12:43:08.520Z,6.85
2022-12-24T12:47:50.257Z,6.77
2022-12-24T12:52:40.902Z,6.73
2022-12-24T12:57:06.338Z,6.75
2022-12-24T13:01:44.860Z,6.77
